Login to view products. 
Wednesday, August 23, 2017 (17:36 UTC)
Fujairah International Airport
ICAO Code: OMFJ
IATA Code: FJR
  • METAR OMFJ 231700Z 10005KT 8000 NSC 31/27 Q1002 A2961=
  • TAF OMFJ 231700Z 2318/2424 13005KT 7000 FEW025 TEMPO 2322/2405 VRB03KT 4000 HZ SCT016 BECMG 2406/2408 10011KT NSC BECMG 2415/2417 15005KT=